ENVD Airport Information

Runway Information
Runway 08 Length 3271 ft width 98 ft Elevation 127 ft Threshold N/A Heading 87
Runway 26 Length 3271 ft Width 98 ft Elevation 87 ft Threshold N/A Heading 267
Airport Frequencies
Type INFO Name Vadsø Frequency 120.2 MHZ
Airport Navaids
Type NDB Name Vadso Frequency 342 KHZ
Airport Weather Information & NOTAM
ADDS - METARS form results

(1728 UTC 01 December 2022)
Data provider http://aviationweather.gov/metar/data/
 
METAR text: ENVD 011720Z 34007KT 9999 BKN016 M01/M04 Q1037
Conditions at: ENVD (VADSO , NO) observed 1720 UTC 01 December 2022
Temperature: -1.0°C (30°F)
Dewpoint: -4.0°C (25°F) [RH = 80%]
Pressure (altimeter): 30.62 inches Hg (1037.0 mb)
Winds: from the NNW (340 degrees) at 8 MPH (7 knots; 3.6 m/s)
Visibility: 6 or more miles (10+ km)
Ceiling: 1600 feet AGL
Clouds: broken clouds at 1600 feet AGL
Weather: no significant weather observed at this time

METAR text: ENVD 011650Z 35007KT 9999 BKN016 M00/M04 Q1037
Conditions at: ENVD (VADSO , NO) observed 1650 UTC 01 December 2022
Temperature: 0.0°C (32°F)
Dewpoint: -4.0°C (25°F) [RH = 74%]
Pressure (altimeter): 30.62 inches Hg (1037.0 mb)
Winds: from the N (350 degrees) at 8 MPH (7 knots; 3.6 m/s)
Visibility: 6 or more miles (10+ km)
Ceiling: 1600 feet AGL
Clouds: broken clouds at 1600 feet AGL
Weather: no significant weather observed at this time

Forecast for: ENVD (VADSO , NO)
Text: TAF ENVD 011400Z 0115/0124 29008KT 9999 FEW012 BKN020
Forecast period: 1500 UTC 01 December 2022 to 0000 UTC 02 December 2022
Forecast type: FROM: standard forecast or significant change
Winds: from the WNW (290 degrees) at 9 MPH (8 knots; 4.1 m/s)
Visibility: 6 or more miles (10+ km)
Ceiling: 2000 feet AGL
Clouds: few clouds at 1200 feet AGL
broken clouds at 2000 feet AGL
Weather: no significant weather forecast for this period